KSSC/SSC METAR and TAF weather

Enter ICAO airport designator
Station Type Date Time Source
KSSC METAR 2020/07/15 06:56 UTC NOAA

KSSC 150656Z AUTO 06004KT 10SM CLR 25/23 A3002 RMK AO2 SLP165 T02450234 $


Station Type Date Time Source
KSSC Decoded METAR 2020/07/15 06:56 UTC NOAA

Shaw Air Force Base, SC, United States (KSSC) 33-58N 080-29W 73M
Jul 15, 2020 - 02:56 AM EDT / 2020.07.15 0656 UTC
Wind: from the ENE (060 degrees) at 5 MPH (4 KT):0
Visibility: 10 mile(s):0
Sky conditions: clear
Temperature: 76.1 F (24.5 C)
Dew Point: 74.1 F (23.4 C)
Relative Humidity: 93%
Pressure (altimeter): 30.02 in. Hg (1016 hPa)
ob: KSSC 150656Z AUTO 06004KT 10SM CLR 25/23 A3002 RMK AO2 SLP165 T02450234
cycle: 7

Station Type Date Time Source
KSSC TAF 2020/07/15 07:07 UTC NOAA

TAF KSSC 150700Z 1507/1613 05006KT 9999 FEW100 QNH2999INS
BECMG 1509/1510 VRB06KT 8000 BR FEW080 QNH3000INS
BECMG 1519/1520 13009KT 9999 VCSH SCT050 QNH3002INS
BECMG 1602/1603 15009KT 9999 NSW BKN025 OVC040 QNH3008INS
BECMG 1608/1609 VRB06KT 4800 BR SCT010 BKN065 QNH3010INS TX34/1519Z TN23/1510Z

Example: see airport list